createdAt,value
2022-10-05T00:01:57.889Z,22.84
2022-10-05T00:04:30.557Z,22.70
2022-10-05T00:07:01.402Z,22.34
2022-10-05T00:09:32.224Z,22.59
2022-10-05T00:11:59.461Z,22.81
2022-10-05T00:14:49.911Z,22.59
2022-10-05T00:17:22.321Z,22.52
2022-10-05T00:20:07.583Z,22.83
2022-10-05T00:23:03.081Z,22.36
2022-10-05T00:25:27.574Z,22.96
2022-10-05T00:28:03.544Z,22.63
2022-10-05T00:30:34.616Z,22.60
2022-10-05T00:33:07.941Z,22.55
2022-10-05T00:35:36.687Z,22.61
2022-10-05T00:45:21.788Z,22.65
2022-10-05T10:30:43.954Z,22.92
2022-10-05T11:12:12.186Z,22.36
2022-10-05T11:15:15.657Z,22.43
2022-10-05T11:17:49.484Z,22.09
2022-10-05T11:20:42.318Z,22.33
2022-10-05T11:23:21.738Z,22.15
2022-10-05T11:26:35.618Z,22.28
2022-10-05T11:29:24.182Z,22.08
2022-10-05T11:32:25.256Z,22.06
2022-10-05T11:35:07.951Z,22.22
2022-10-05T11:37:44.457Z,22.24
2022-10-05T11:40:35.388Z,22.06
2022-10-05T11:43:40.318Z,21.90
2022-10-05T11:46:18.994Z,22.10
2022-10-05T11:49:05.585Z,21.83
2022-10-05T11:51:54.113Z,21.73
2022-10-05T11:54:24.288Z,21.62
2022-10-05T11:57:28.598Z,21.54
2022-10-05T12:00:11.651Z,21.58
2022-10-05T12:03:02.019Z,21.65
2022-10-05T12:05:43.796Z,21.64
2022-10-05T12:08:28.507Z,21.48
2022-10-05T12:11:20.369Z,21.62
2022-10-05T12:13:53.432Z,21.34
2022-10-05T12:16:38.575Z,21.29
2022-10-05T12:19:27.565Z,21.04
2022-10-05T12:22:19.883Z,21.28
2022-10-05T12:25:14.779Z,20.86
2022-10-05T12:27:50.215Z,20.88
2022-10-05T12:30:33.603Z,20.70
2022-10-05T12:33:42.643Z,20.82
2022-10-05T12:37:12.461Z,20.96
2022-10-05T12:40:32.715Z,20.88
2022-10-05T12:48:07.583Z,20.59
2022-10-05T12:54:52.958Z,20.50
2022-10-05T12:58:02.532Z,20.43
2022-10-05T13:00:39.785Z,20.54
2022-10-05T13:03:23.161Z,20.20
2022-10-05T13:06:20.626Z,20.29
2022-10-05T13:09:50.354Z,20.41
2022-10-05T13:15:52.973Z,20.46
2022-10-05T13:18:52.190Z,20.41
2022-10-05T13:22:09.399Z,20.67
2022-10-05T13:31:52.081Z,20.24
2022-10-05T13:34:41.417Z,19.63
2022-10-05T13:37:44.363Z,19.82
2022-10-05T13:40:35.586Z,19.54
2022-10-05T13:43:18.973Z,19.83
2022-10-05T13:46:17.078Z,19.70
2022-10-05T13:48:57.708Z,19.70
2022-10-05T13:51:36.117Z,19.87
2022-10-05T13:54:23.478Z,20.25
2022-10-05T13:56:58.178Z,20.14
2022-10-05T13:59:44.321Z,20.19
2022-10-05T14:02:28.524Z,20.22
2022-10-05T14:05:01.657Z,19.88
2022-10-05T14:07:37.677Z,19.58
2022-10-05T14:10:20.074Z,19.78
2022-10-05T14:12:57.049Z,19.75
2022-10-05T14:15:41.278Z,19.70
2022-10-05T14:18:50.662Z,19.52
2022-10-05T14:21:27.035Z,19.70
2022-10-05T14:23:56.745Z,19.73
2022-10-05T14:26:29.920Z,19.96
2022-10-05T14:29:04.088Z,19.61
2022-10-05T14:31:49.691Z,20.03
2022-10-05T14:34:38.529Z,20.10
2022-10-05T14:37:20.966Z,20.00
2022-10-05T14:39:54.998Z,19.98
2022-10-05T14:42:46.936Z,19.99
2022-10-05T14:45:25.679Z,19.91
2022-10-05T14:48:32.567Z,19.71
2022-10-05T14:51:06.410Z,19.79
2022-10-05T14:53:58.519Z,19.51
2022-10-05T14:56:50.240Z,19.50
2022-10-05T17:01:21.393Z,20.56
2022-10-05T17:07:52.673Z,20.72
2022-10-05T17:10:57.404Z,20.40
2022-10-05T17:13:56.828Z,20.64
2022-10-05T17:42:38.557Z,20.85
2022-10-05T18:14:07.668Z,21.20
2022-10-05T19:36:39.915Z,21.97
